createdAt,value
2022-07-25T03:59:10.376Z,120
2022-07-25T04:02:46.789Z,121
2022-07-25T04:13:11.643Z,122
2022-07-25T04:24:34.971Z,116
2022-07-25T04:27:11.668Z,110
2022-07-25T04:29:39.400Z,99
2022-07-25T04:31:18.052Z,100
2022-07-25T04:37:44.906Z,104
2022-07-25T04:38:55.934Z,98
2022-07-25T04:40:12.225Z,102
2022-07-25T04:46:44.830Z,90
2022-07-25T04:51:33.561Z,93
2022-07-25T04:53:25.323Z,111
2022-07-25T04:54:55.307Z,110
2022-07-25T04:57:00.043Z,97
2022-07-25T05:00:56.361Z,98
2022-07-25T05:02:02.481Z,94
2022-07-25T05:04:32.478Z,86
2022-07-25T05:07:52.162Z,93
2022-07-25T05:09:26.079Z,92
2022-07-25T05:14:27.230Z,105
2022-07-25T05:18:12.020Z,105
2022-07-25T05:28:21.770Z,87
2022-07-25T05:31:09.713Z,103
2022-07-25T05:33:22.550Z,105
2022-07-25T05:35:03.542Z,114
2022-07-25T05:36:48.963Z,119
2022-07-25T05:41:21.703Z,121
2022-07-25T05:52:09.646Z,99
2022-07-25T06:07:50.233Z,91
2022-07-25T06:09:35.281Z,85
2022-07-25T06:13:55.746Z,81
2022-07-25T06:15:40.583Z,86
2022-07-25T06:56:56.823Z,34
2022-07-25T09:04:14.289Z,37
2022-07-25T09:09:26.769Z,29
2022-07-25T09:10:51.165Z,33
2022-07-25T09:12:26.125Z,29
2022-07-25T09:18:34.239Z,39
2022-07-25T11:13:13.881Z,45
2022-07-25T11:22:37.839Z,64
2022-07-25T11:56:32.353Z,45
2022-07-25T12:17:50.446Z,100
2022-07-25T12:21:33.614Z,79
2022-07-25T12:24:59.649Z,48
2022-07-25T12:26:42.932Z,63
2022-07-25T12:28:31.165Z,46
2022-07-25T12:35:39.467Z,39
2022-07-25T12:38:21.986Z,47
2022-07-25T12:42:21.990Z,47
2022-07-25T12:44:03.385Z,47
2022-07-25T12:45:45.191Z,43
2022-07-25T12:47:40.573Z,43
2022-07-25T13:07:03.594Z,43
2022-07-25T13:08:39.629Z,53
2022-07-25T13:13:58.949Z,105
2022-07-25T13:20:27.558Z,113
2022-07-25T13:22:37.093Z,99
2022-07-25T13:28:44.284Z,85
2022-07-25T13:30:24.495Z,95
2022-07-25T13:31:29.585Z,78
2022-07-25T13:32:34.648Z,78
2022-07-25T13:33:39.711Z,77
2022-07-25T13:34:44.492Z,74
2022-07-25T13:35:49.564Z,73
2022-07-25T13:36:54.141Z,73
2022-07-25T13:38:00.037Z,68
2022-07-25T13:39:05.472Z,64
2022-07-25T13:40:09.520Z,58
2022-07-25T13:41:13.980Z,68
2022-07-25T13:42:19.353Z,68
2022-07-25T13:44:28.225Z,48
2022-07-25T13:45:33.313Z,45
2022-07-25T13:46:39.444Z,47
2022-07-25T13:47:44.185Z,54
2022-07-25T13:48:49.186Z,38
2022-07-25T13:49:54.198Z,44
2022-07-25T13:50:59.400Z,39
2022-07-25T13:52:07.975Z,64
2022-07-25T13:53:16.844Z,56
2022-07-25T13:54:21.517Z,53
2022-07-25T13:55:26.407Z,67
2022-07-25T13:56:33.823Z,57
2022-07-25T13:57:38.800Z,58
2022-07-25T13:58:49.048Z,43
2022-07-25T13:59:53.743Z,41
2022-07-25T14:00:58.138Z,74
2022-07-25T14:02:04.953Z,63
2022-07-25T14:03:10.037Z,63
2022-07-25T14:04:15.370Z,77
2022-07-25T14:05:20.100Z,70
2022-07-25T14:06:25.232Z,75
2022-07-25T14:07:29.888Z,77
2022-07-25T14:08:37.653Z,67
2022-07-25T14:09:47.296Z,67
2022-07-25T14:10:52.436Z,67
2022-07-25T14:11:57.522Z,71
2022-07-25T14:13:02.377Z,73
2022-07-25T14:14:08.329Z,76
2022-07-25T14:15:13.589Z,55
2022-07-25T14:16:18.716Z,81
2022-07-25T14:17:26.992Z,77
2022-07-25T14:18:28.445Z,73
2022-07-25T14:19:32.842Z,89
2022-07-25T14:20:37.237Z,71
2022-07-25T14:21:43.619Z,82
2022-07-25T14:22:50.996Z,78
2022-07-25T14:23:59.948Z,83
2022-07-25T14:25:05.207Z,80
2022-07-25T14:26:09.971Z,76
2022-07-25T14:27:14.699Z,78
2022-07-25T14:28:25.795Z,88
2022-07-25T14:29:33.786Z,84
2022-07-25T14:30:38.880Z,79
2022-07-25T14:31:43.667Z,78
2022-07-25T14:32:52.208Z,79
2022-07-25T14:33:56.829Z,64
2022-07-25T14:35:01.124Z,71
2022-07-25T14:36:06.252Z,64
2022-07-25T14:37:10.725Z,66
2022-07-25T14:38:29.144Z,78
2022-07-25T14:39:34.244Z,83
2022-07-25T14:43:08.324Z,87
2022-07-25T14:44:19.297Z,85
2022-07-25T14:45:36.809Z,90
2022-07-25T14:47:40.036Z,80
2022-07-25T14:53:27.879Z,66
2022-07-25T14:54:32.619Z,75
2022-07-25T14:55:42.599Z,68
2022-07-25T14:57:10.753Z,69
2022-07-25T14:58:15.117Z,66
2022-07-25T15:00:52.327Z,47
2022-07-25T15:01:57.824Z,72
2022-07-25T15:03:02.653Z,74
2022-07-25T15:04:25.832Z,73
2022-07-25T15:05:31.091Z,94
2022-07-25T15:06:35.561Z,90
2022-07-25T15:07:40.306Z,94
2022-07-25T15:09:07.921Z,89
2022-07-25T15:10:23.140Z,97
2022-07-25T15:11:28.848Z,101
2022-07-25T15:12:39.088Z,100
2022-07-25T15:13:45.233Z,103
2022-07-25T15:14:51.548Z,97
2022-07-25T15:15:57.637Z,100
2022-07-25T15:17:07.859Z,106
2022-07-25T15:18:52.492Z,111
2022-07-25T15:19:50.835Z,105
2022-07-25T15:21:36.728Z,108
2022-07-25T15:23:01.448Z,95
2022-07-25T15:24:24.586Z,95
2022-07-25T15:26:10.942Z,95
2022-07-25T15:28:50.399Z,110
2022-07-25T15:29:56.376Z,110
2022-07-25T15:31:10.408Z,110
2022-07-25T15:32:57.145Z,110
2022-07-25T15:34:04.476Z,113
2022-07-25T15:35:27.436Z,104
2022-07-25T15:36:35.601Z,104
2022-07-25T15:37:40.656Z,103
2022-07-25T15:38:54.248Z,112
2022-07-25T15:39:59.236Z,132
2022-07-25T15:43:37.561Z,98
2022-07-25T15:44:59.662Z,94
2022-07-25T15:46:43.619Z,82
2022-07-25T15:47:54.141Z,89
2022-07-25T15:49:00.055Z,85
2022-07-25T15:50:21.740Z,76
2022-07-25T15:51:37.764Z,93
2022-07-25T15:54:19.851Z,91
2022-07-25T15:55:35.021Z,104
2022-07-25T15:56:41.471Z,99
2022-07-25T16:00:34.622Z,101
2022-07-25T16:02:37.967Z,101
2022-07-25T16:04:54.573Z,101
2022-07-25T16:06:42.872Z,101
2022-07-25T16:11:20.695Z,119
2022-07-25T16:12:28.536Z,119
2022-07-25T16:14:11.408Z,119
2022-07-25T16:15:19.894Z,132
2022-07-25T16:16:24.591Z,122
2022-07-25T16:17:30.145Z,109
2022-07-25T16:19:30.083Z,109
2022-07-25T16:20:34.447Z,109
2022-07-25T16:22:46.176Z,109
2022-07-25T16:23:51.151Z,109
2022-07-25T16:25:09.284Z,109
2022-07-25T16:26:33.416Z,117
2022-07-25T16:28:18.900Z,117
2022-07-25T16:31:02.231Z,117
2022-07-25T16:32:10.048Z,123
2022-07-25T16:33:19.083Z,117
2022-07-25T16:34:28.994Z,120
2022-07-25T16:35:31.512Z,120
2022-07-25T16:36:36.600Z,113
2022-07-25T16:37:41.764Z,114
2022-07-25T16:39:17.584Z,115
2022-07-25T16:40:25.978Z,110
2022-07-25T16:41:27.507Z,110
2022-07-25T16:42:36.582Z,121
2022-07-25T16:43:51.552Z,113
2022-07-25T16:56:29.635Z,120
2022-07-25T16:58:50.612Z,120
2022-07-25T17:07:45.863Z,130
2022-07-25T17:12:19.487Z,123
2022-07-25T17:13:25.108Z,120
2022-07-25T17:14:30.558Z,116
2022-07-25T17:15:35.604Z,110
2022-07-25T17:16:40.512Z,120
2022-07-25T17:17:45.195Z,118
2022-07-25T17:18:50.889Z,128
2022-07-25T17:19:59.828Z,126
2022-07-25T17:21:00.199Z,114
2022-07-25T17:22:04.904Z,121
2022-07-25T17:23:42.695Z,119
2022-07-25T17:24:48.947Z,124
2022-07-25T17:25:53.916Z,118
2022-07-25T17:27:03.816Z,115
2022-07-25T17:28:08.832Z,120
2022-07-25T17:29:16.464Z,122
2022-07-25T17:31:28.564Z,122
2022-07-25T17:32:42.444Z,120
2022-07-25T17:33:47.123Z,120
2022-07-25T17:34:52.705Z,125
2022-07-25T17:35:57.432Z,119
2022-07-25T17:37:02.485Z,123
2022-07-25T17:38:07.023Z,117
2022-07-25T17:39:29.228Z,124
2022-07-25T17:40:34.041Z,120
2022-07-25T17:41:40.227Z,127
2022-07-25T17:42:45.689Z,122
2022-07-25T17:43:50.175Z,126
2022-07-25T17:44:59.083Z,127
2022-07-25T17:46:18.941Z,132
2022-07-25T17:47:23.551Z,127
2022-07-25T17:48:29.754Z,121
2022-07-25T17:49:36.391Z,124
2022-07-25T17:51:05.886Z,125
2022-07-25T17:52:10.804Z,126
2022-07-25T17:53:15.148Z,124
2022-07-25T17:55:28.569Z,121
2022-07-25T17:56:36.723Z,127
2022-07-25T18:02:14.405Z,124
2022-07-25T18:13:22.511Z,122
2022-07-25T18:35:00.275Z,122
2022-07-25T18:37:21.067Z,127
2022-07-25T18:38:25.975Z,121
2022-07-25T18:39:31.200Z,116
2022-07-25T18:40:38.643Z,121
2022-07-25T18:41:49.203Z,120
2022-07-25T18:42:58.527Z,127
2022-07-25T18:44:15.466Z,132
2022-07-25T18:45:21.172Z,125
2022-07-25T18:46:31.328Z,123
2022-07-25T18:47:43.216Z,121
2022-07-25T18:48:49.480Z,123
2022-07-25T18:49:59.825Z,125
2022-07-25T18:51:09.319Z,118
2022-07-25T18:52:14.516Z,125
2022-07-25T18:53:19.919Z,121
2022-07-25T18:54:25.046Z,120
2022-07-25T18:56:52.849Z,121
2022-07-25T18:57:57.763Z,121
2022-07-25T18:59:02.999Z,129
2022-07-25T19:00:08.835Z,125
2022-07-25T19:01:15.520Z,129
2022-07-25T19:02:24.474Z,126
2022-07-25T19:03:29.491Z,126
2022-07-25T19:04:58.101Z,121
2022-07-25T19:06:09.088Z,122
2022-07-25T19:07:15.327Z,122
2022-07-25T19:08:32.602Z,123
2022-07-25T19:09:38.996Z,122
2022-07-25T19:10:45.003Z,123
2022-07-25T19:11:56.613Z,121
2022-07-25T19:13:01.376Z,121
2022-07-25T19:14:14.276Z,124
2022-07-25T19:15:48.109Z,124
2022-07-25T19:17:07.824Z,119
2022-07-25T19:18:13.409Z,126
2022-07-25T19:19:26.052Z,137
2022-07-25T19:20:50.300Z,134
2022-07-25T19:22:14.719Z,136
2022-07-25T19:23:28.287Z,127
2022-07-25T19:24:38.820Z,127
2022-07-25T19:36:04.013Z,121
2022-07-25T19:37:55.047Z,123
2022-07-25T19:39:11.217Z,121
2022-07-25T19:40:28.608Z,115
2022-07-25T19:41:33.509Z,115
2022-07-25T19:42:38.407Z,124
2022-07-25T19:43:44.358Z,113
2022-07-25T19:44:49.050Z,113
2022-07-25T19:45:54.092Z,113
2022-07-25T19:46:58.476Z,113
2022-07-25T19:48:03.479Z,113
2022-07-25T19:49:23.407Z,113
2022-07-25T19:50:28.836Z,113
2022-07-25T19:51:42.984Z,113
2022-07-25T19:53:07.510Z,113
2022-07-25T19:54:15.747Z,113
2022-07-25T19:55:20.780Z,113
2022-07-25T19:56:25.551Z,113
2022-07-25T19:57:34.035Z,113
2022-07-25T19:58:40.063Z,113
2022-07-25T19:59:45.277Z,113
2022-07-25T20:00:50.225Z,113
2022-07-25T20:02:01.761Z,113
2022-07-25T20:03:06.691Z,115
2022-07-25T20:04:11.364Z,113
2022-07-25T20:05:15.220Z,113
2022-07-25T20:06:25.508Z,113
2022-07-25T20:07:34.204Z,113
2022-07-25T20:08:40.224Z,113
2022-07-25T20:09:50.879Z,113
2022-07-25T20:11:04.810Z,113
2022-07-25T20:12:16.055Z,113
2022-07-25T20:13:20.444Z,113
2022-07-25T20:14:24.807Z,113
2022-07-25T20:15:29.515Z,113
2022-07-25T20:16:34.538Z,113
2022-07-25T20:17:38.938Z,113
2022-07-25T20:18:44.103Z,113
2022-07-25T20:19:49.043Z,113
2022-07-25T20:20:54.221Z,113
2022-07-25T20:22:01.675Z,113
2022-07-25T20:23:08.592Z,113
2022-07-25T20:24:16.880Z,113
2022-07-25T20:25:18.904Z,113
2022-07-25T20:26:27.252Z,113
2022-07-25T20:28:04.055Z,113
2022-07-25T20:29:09.647Z,113
2022-07-25T20:30:14.326Z,113
2022-07-25T20:31:20.606Z,113
2022-07-25T20:32:25.115Z,112
2022-07-25T20:33:30.977Z,114
2022-07-25T20:34:36.018Z,108
2022-07-25T20:35:40.447Z,107
2022-07-25T20:36:45.494Z,105
2022-07-25T20:37:51.135Z,105
2022-07-25T20:38:55.676Z,105
2022-07-25T20:40:00.231Z,105
2022-07-25T20:41:05.119Z,105
2022-07-25T20:42:14.699Z,105
2022-07-25T20:43:23.727Z,105
2022-07-25T20:44:28.958Z,105
2022-07-25T20:45:33.362Z,105
2022-07-25T20:46:38.041Z,105
2022-07-25T20:47:43.303Z,105
2022-07-25T20:48:49.619Z,105
2022-07-25T20:49:56.170Z,105
2022-07-25T20:51:00.315Z,105
2022-07-25T20:52:05.483Z,105
2022-07-25T20:53:10.486Z,105
2022-07-25T20:54:17.092Z,105
2022-07-25T20:55:21.351Z,105
2022-07-25T20:56:26.766Z,105
2022-07-25T20:57:36.062Z,105
2022-07-25T20:58:41.387Z,105
2022-07-25T20:59:46.475Z,105
2022-07-25T21:00:51.533Z,105
2022-07-25T21:01:56.371Z,105
2022-07-25T21:03:01.343Z,105
2022-07-25T21:04:07.739Z,105
2022-07-25T21:05:10.659Z,105
2022-07-25T21:06:15.394Z,105
2022-07-25T21:07:20.336Z,105
2022-07-25T21:08:24.762Z,105
2022-07-25T21:09:32.567Z,105
2022-07-25T21:10:34.519Z,105
2022-07-25T21:11:40.056Z,105
2022-07-25T21:12:44.910Z,110
2022-07-25T21:13:49.779Z,103
2022-07-25T21:14:54.437Z,104
2022-07-25T21:16:01.578Z,108
2022-07-25T21:17:07.151Z,110
2022-07-25T21:18:12.096Z,112
2022-07-25T21:19:17.612Z,112
2022-07-25T21:20:22.123Z,112
2022-07-25T21:21:27.202Z,112
2022-07-25T21:22:31.827Z,112
2022-07-25T21:23:39.919Z,110
2022-07-25T21:24:49.027Z,108
2022-07-25T21:25:58.252Z,109
2022-07-25T21:27:07.589Z,108
2022-07-25T21:28:12.407Z,108
2022-07-25T21:29:17.211Z,119
2022-07-25T21:30:22.302Z,119
2022-07-25T21:31:27.094Z,122
2022-07-25T21:32:45.019Z,128
2022-07-25T21:33:49.876Z,128
2022-07-25T21:34:54.623Z,128
2022-07-25T21:35:59.356Z,128
2022-07-25T21:37:03.915Z,128
2022-07-25T21:38:13.952Z,112
2022-07-25T21:39:19.664Z,107
2022-07-25T21:40:24.447Z,108
2022-07-25T21:41:28.843Z,108
2022-07-25T21:42:33.951Z,108
2022-07-25T21:43:39.863Z,108
2022-07-25T21:44:44.651Z,105
2022-07-25T21:45:49.588Z,108
2022-07-25T21:46:54.440Z,111
2022-07-25T21:47:59.417Z,112
2022-07-25T21:49:04.258Z,112
2022-07-25T21:50:15.388Z,112
2022-07-25T21:51:24.968Z,112
2022-07-25T21:52:30.436Z,112
2022-07-25T21:53:33.508Z,112
2022-07-25T21:54:51.414Z,112
2022-07-25T21:55:56.167Z,112
2022-07-25T21:57:00.888Z,112
2022-07-25T21:58:06.024Z,112
2022-07-25T21:59:10.840Z,112
2022-07-25T22:00:14.991Z,112
2022-07-25T22:01:20.035Z,112
2022-07-25T22:02:44.628Z,112
2022-07-25T22:03:49.474Z,112
2022-07-25T22:04:54.285Z,112
2022-07-25T22:05:59.661Z,112
2022-07-25T22:07:04.333Z,112
2022-07-25T22:08:10.665Z,112
2022-07-25T22:09:15.807Z,112
2022-07-25T22:10:21.663Z,112
2022-07-25T22:11:39.306Z,114
2022-07-25T22:12:33.097Z,113
2022-07-25T22:13:41.441Z,113
2022-07-25T22:14:42.922Z,113
2022-07-25T22:15:47.870Z,113
2022-07-25T22:16:53.509Z,113
2022-07-25T22:18:02.497Z,113
2022-07-25T22:19:07.937Z,113
2022-07-25T22:20:12.658Z,113
2022-07-25T22:21:18.465Z,113
2022-07-25T22:22:26.426Z,113
2022-07-25T22:23:31.749Z,112
2022-07-25T22:24:43.132Z,112
2022-07-25T22:25:44.768Z,112
2022-07-25T22:26:49.245Z,112
2022-07-25T22:27:54.384Z,112
2022-07-25T22:28:59.977Z,112
2022-07-25T22:30:08.885Z,112
2022-07-25T22:31:58.193Z,112
2022-07-25T22:33:18.068Z,118
2022-07-25T22:34:37.778Z,107
2022-07-25T22:35:42.774Z,107
2022-07-25T22:36:47.801Z,107
2022-07-25T22:37:52.806Z,107
2022-07-25T22:38:58.168Z,107
2022-07-25T22:40:03.084Z,107
2022-07-25T22:41:08.381Z,119
2022-07-25T22:42:16.063Z,120
2022-07-25T22:43:18.554Z,113
2022-07-25T22:44:23.867Z,113
2022-07-25T22:45:28.764Z,113
2022-07-25T22:46:38.720Z,116
2022-07-25T22:47:47.918Z,121
2022-07-25T22:48:52.531Z,123
2022-07-25T22:49:57.156Z,120
2022-07-25T22:51:06.594Z,128
2022-07-25T22:52:11.445Z,121
2022-07-25T22:53:17.470Z,127
2022-07-25T22:54:22.010Z,118
2022-07-25T22:55:26.633Z,126
2022-07-25T22:56:31.716Z,122
2022-07-25T22:57:37.699Z,116
2022-07-25T22:58:41.494Z,120
2022-07-25T22:59:46.143Z,118
2022-07-25T23:00:55.190Z,125
2022-07-25T23:02:04.165Z,118
2022-07-25T23:03:08.974Z,121
2022-07-25T23:04:13.801Z,127
2022-07-25T23:05:18.769Z,121
2022-07-25T23:06:23.549Z,120
2022-07-25T23:07:31.830Z,121
2022-07-25T23:08:36.745Z,128
2022-07-25T23:09:41.245Z,121
2022-07-25T23:10:46.813Z,121
2022-07-25T23:11:52.930Z,114
2022-07-25T23:12:57.434Z,116
2022-07-25T23:14:02.025Z,122
2022-07-25T23:15:07.266Z,125
2022-07-25T23:16:12.160Z,116
2022-07-25T23:17:17.236Z,121
2022-07-25T23:18:22.154Z,116
2022-07-25T23:19:27.461Z,116
2022-07-25T23:20:32.473Z,116
2022-07-25T23:21:37.074Z,123
2022-07-25T23:22:43.099Z,122
2022-07-25T23:23:47.587Z,127
2022-07-25T23:24:52.413Z,122
2022-07-25T23:26:02.074Z,123
2022-07-25T23:27:06.797Z,121
2022-07-25T23:28:11.937Z,127
2022-07-25T23:29:16.632Z,121
2022-07-25T23:30:22.813Z,119
2022-07-25T23:31:28.828Z,123
2022-07-25T23:32:33.406Z,124
2022-07-25T23:33:38.395Z,123
2022-07-25T23:34:43.541Z,123
2022-07-25T23:35:48.441Z,125
2022-07-25T23:36:53.301Z,126
2022-07-25T23:37:58.810Z,124
2022-07-25T23:39:05.273Z,117
2022-07-25T23:40:09.438Z,125
2022-07-25T23:41:13.812Z,125
2022-07-25T23:42:18.794Z,124
2022-07-25T23:43:33.026Z,125
2022-07-25T23:46:08.061Z,129
2022-07-25T23:47:13.012Z,131
2022-07-25T23:48:17.792Z,126
2022-07-25T23:49:22.726Z,127
2022-07-25T23:50:28.059Z,128
2022-07-25T23:51:32.954Z,133
2022-07-25T23:52:39.476Z,129
2022-07-25T23:53:45.844Z,135
2022-07-25T23:54:50.762Z,132
2022-07-25T23:55:55.719Z,136
2022-07-25T23:57:00.481Z,126
2022-07-25T23:58:05.649Z,130
2022-07-25T23:59:11.067Z,126
